sensor_id;sensor_type;location;lat;lon;timestamp;P1;durP1;ratioP1;P2;durP2;ratioP2
4023;SDS011;2026;51.002;13.668;2022-08-21T00:03:16;32.33;;;23.50;;
4023;SDS011;2026;51.002;13.668;2022-08-21T00:08:20;37.60;;;26.53;;
4023;SDS011;2026;51.002;13.668;2022-08-21T00:13:24;32.23;;;24.50;;
4023;SDS011;2026;51.002;13.668;2022-08-21T00:18:28;37.80;;;26.73;;
4023;SDS011;2026;51.002;13.668;2022-08-21T00:23:32;40.37;;;27.30;;
4023;SDS011;2026;51.002;13.668;2022-08-21T00:28:37;44.97;;;29.23;;
4023;SDS011;2026;51.002;13.668;2022-08-21T00:33:41;32.60;;;22.23;;
4023;SDS011;2026;51.002;13.668;2022-08-21T00:38:44;35.67;;;25.93;;
4023;SDS011;2026;51.002;13.668;2022-08-21T00:43:49;40.53;;;28.30;;
4023;SDS011;2026;51.002;13.668;2022-08-21T00:48:53;47.83;;;31.93;;
4023;SDS011;2026;51.002;13.668;2022-08-21T00:53:59;52.33;;;33.07;;
4023;SDS011;2026;51.002;13.668;2022-08-21T00:59:06;55.80;;;34.17;;
4023;SDS011;2026;51.002;13.668;2022-08-21T01:04:09;53.13;;;33.50;;
4023;SDS011;2026;51.002;13.668;2022-08-21T01:09:13;44.37;;;31.00;;
4023;SDS011;2026;51.002;13.668;2022-08-21T01:14:18;44.83;;;31.00;;
4023;SDS011;2026;51.002;13.668;2022-08-21T01:19:22;51.07;;;35.80;;
4023;SDS011;2026;51.002;13.668;2022-08-21T01:24:27;51.67;;;33.67;;
4023;SDS011;2026;51.002;13.668;2022-08-21T01:29:34;37.40;;;26.27;;
4023;SDS011;2026;51.002;13.668;2022-08-21T01:34:41;32.93;;;23.67;;
4023;SDS011;2026;51.002;13.668;2022-08-21T01:39:48;27.10;;;19.40;;
4023;SDS011;2026;51.002;13.668;2022-08-21T01:44:51;25.03;;;17.60;;
4023;SDS011;2026;51.002;13.668;2022-08-21T01:49:56;14.13;;;10.40;;
4023;SDS011;2026;51.002;13.668;2022-08-21T01:55:01;12.30;;;9.67;;
4023;SDS011;2026;51.002;13.668;2022-08-21T02:00:06;11.30;;;9.20;;
4023;SDS011;2026;51.002;13.668;2022-08-21T02:05:13;11.97;;;9.50;;
4023;SDS011;2026;51.002;13.668;2022-08-21T02:10:19;11.03;;;8.87;;
4023;SDS011;2026;51.002;13.668;2022-08-21T02:15:24;10.50;;;9.40;;
4023;SDS011;2026;51.002;13.668;2022-08-21T02:20:28;11.97;;;9.50;;
4023;SDS011;2026;51.002;13.668;2022-08-21T02:25:34;13.37;;;10.13;;
4023;SDS011;2026;51.002;13.668;2022-08-21T02:30:40;11.33;;;9.53;;
4023;SDS011;2026;51.002;13.668;2022-08-21T02:35:46;11.43;;;9.23;;
4023;SDS011;2026;51.002;13.668;2022-08-21T02:40:55;13.40;;;10.00;;
4023;SDS011;2026;51.002;13.668;2022-08-21T02:45:59;11.00;;;9.40;;
4023;SDS011;2026;51.002;13.668;2022-08-21T02:51:03;11.57;;;9.53;;
4023;SDS011;2026;51.002;13.668;2022-08-21T02:56:11;11.00;;;9.77;;
4023;SDS011;2026;51.002;13.668;2022-08-21T03:01:15;12.97;;;10.20;;
4023;SDS011;2026;51.002;13.668;2022-08-21T03:06:19;11.30;;;9.73;;
4023;SDS011;2026;51.002;13.668;2022-08-21T03:11:25;10.93;;;9.10;;
4023;SDS011;2026;51.002;13.668;2022-08-21T03:16:28;13.70;;;11.00;;
4023;SDS011;2026;51.002;13.668;2022-08-21T03:21:35;12.00;;;9.80;;
4023;SDS011;2026;51.002;13.668;2022-08-21T03:26:40;12.80;;;9.67;;
4023;SDS011;2026;51.002;13.668;2022-08-21T03:31:43;12.70;;;10.10;;
4023;SDS011;2026;51.002;13.668;2022-08-21T03:36:46;11.60;;;9.93;;
4023;SDS011;2026;51.002;13.668;2022-08-21T03:41:51;10.70;;;9.57;;
4023;SDS011;2026;51.002;13.668;2022-08-21T03:46:55;14.83;;;12.20;;
4023;SDS011;2026;51.002;13.668;2022-08-21T03:51:58;14.50;;;11.60;;
4023;SDS011;2026;51.002;13.668;2022-08-21T03:57:03;12.90;;;10.17;;
4023;SDS011;2026;51.002;13.668;2022-08-21T04:02:07;12.10;;;10.77;;
4023;SDS011;2026;51.002;13.668;2022-08-21T04:07:10;16.27;;;13.40;;
4023;SDS011;2026;51.002;13.668;2022-08-21T04:12:14;17.20;;;13.60;;
4023;SDS011;2026;51.002;13.668;2022-08-21T04:17:17;19.33;;;14.43;;
4023;SDS011;2026;51.002;13.668;2022-08-21T04:22:21;19.07;;;15.50;;
4023;SDS011;2026;51.002;13.668;2022-08-21T04:27:25;20.13;;;17.00;;
4023;SDS011;2026;51.002;13.668;2022-08-21T04:32:28;18.87;;;15.07;;
4023;SDS011;2026;51.002;13.668;2022-08-21T04:37:32;20.77;;;15.73;;
4023;SDS011;2026;51.002;13.668;2022-08-21T04:42:46;18.03;;;15.30;;
4023;SDS011;2026;51.002;13.668;2022-08-21T04:47:52;16.57;;;14.77;;
4023;SDS011;2026;51.002;13.668;2022-08-21T04:52:56;24.80;;;21.43;;
4023;SDS011;2026;51.002;13.668;2022-08-21T04:58:02;23.40;;;18.77;;
4023;SDS011;2026;51.002;13.668;2022-08-21T05:03:05;25.77;;;20.57;;
4023;SDS011;2026;51.002;13.668;2022-08-21T05:08:12;23.50;;;17.47;;
4023;SDS011;2026;51.002;13.668;2022-08-21T05:13:19;22.10;;;17.90;;
4023;SDS011;2026;51.002;13.668;2022-08-21T05:18:23;25.20;;;18.63;;
4023;SDS011;2026;51.002;13.668;2022-08-21T05:23:26;20.33;;;16.20;;
4023;SDS011;2026;51.002;13.668;2022-08-21T05:28:31;21.77;;;17.97;;
4023;SDS011;2026;51.002;13.668;2022-08-21T05:33:34;25.37;;;19.17;;
4023;SDS011;2026;51.002;13.668;2022-08-21T05:38:40;23.10;;;18.83;;
4023;SDS011;2026;51.002;13.668;2022-08-21T05:43:46;20.43;;;16.60;;
4023;SDS011;2026;51.002;13.668;2022-08-21T05:48:50;22.53;;;17.57;;
4023;SDS011;2026;51.002;13.668;2022-08-21T05:53:53;23.67;;;18.20;;
4023;SDS011;2026;51.002;13.668;2022-08-21T05:58:57;26.50;;;19.87;;
4023;SDS011;2026;51.002;13.668;2022-08-21T06:04:00;31.50;;;21.50;;
4023;SDS011;2026;51.002;13.668;2022-08-21T06:09:04;26.23;;;20.53;;
4023;SDS011;2026;51.002;13.668;2022-08-21T06:14:09;25.53;;;18.83;;
4023;SDS011;2026;51.002;13.668;2022-08-21T06:19:12;27.23;;;20.27;;
4023;SDS011;2026;51.002;13.668;2022-08-21T06:24:16;27.60;;;21.93;;
4023;SDS011;2026;51.002;13.668;2022-08-21T06:29:20;27.77;;;22.40;;
4023;SDS011;2026;51.002;13.668;2022-08-21T06:34:24;28.17;;;22.40;;
4023;SDS011;2026;51.002;13.668;2022-08-21T06:39:27;29.70;;;22.20;;
4023;SDS011;2026;51.002;13.668;2022-08-21T06:44:34;28.40;;;22.60;;
4023;SDS011;2026;51.002;13.668;2022-08-21T06:49:37;27.20;;;22.17;;
4023;SDS011;2026;51.002;13.668;2022-08-21T06:54:41;27.83;;;21.73;;
4023;SDS011;2026;51.002;13.668;2022-08-21T06:59:45;27.20;;;20.37;;
4023;SDS011;2026;51.002;13.668;2022-08-21T07:04:49;26.90;;;20.80;;
4023;SDS011;2026;51.002;13.668;2022-08-21T07:09:53;32.63;;;21.37;;
4023;SDS011;2026;51.002;13.668;2022-08-21T07:14:57;40.73;;;23.57;;
4023;SDS011;2026;51.002;13.668;2022-08-21T07:20:01;27.60;;;21.40;;
4023;SDS011;2026;51.002;13.668;2022-08-21T07:25:05;30.93;;;22.93;;
4023;SDS011;2026;51.002;13.668;2022-08-21T07:30:11;31.30;;;23.60;;
4023;SDS011;2026;51.002;13.668;2022-08-21T07:35:14;25.00;;;20.60;;
4023;SDS011;2026;51.002;13.668;2022-08-21T07:40:18;25.67;;;20.13;;
4023;SDS011;2026;51.002;13.668;2022-08-21T07:45:23;28.03;;;22.20;;
4023;SDS011;2026;51.002;13.668;2022-08-21T07:50:27;26.57;;;21.50;;
4023;SDS011;2026;51.002;13.668;2022-08-21T07:55:30;27.03;;;22.37;;
4023;SDS011;2026;51.002;13.668;2022-08-21T08:00:35;24.30;;;19.43;;
4023;SDS011;2026;51.002;13.668;2022-08-21T08:05:39;20.97;;;17.60;;
4023;SDS011;2026;51.002;13.668;2022-08-21T08:10:43;20.23;;;17.23;;
4023;SDS011;2026;51.002;13.668;2022-08-21T08:15:48;26.03;;;18.37;;
4023;SDS011;2026;51.002;13.668;2022-08-21T08:20:51;19.73;;;16.83;;
4023;SDS011;2026;51.002;13.668;2022-08-21T08:25:55;20.37;;;16.17;;
4023;SDS011;2026;51.002;13.668;2022-08-21T08:31:00;19.63;;;16.50;;
4023;SDS011;2026;51.002;13.668;2022-08-21T08:36:03;22.90;;;17.57;;
4023;SDS011;2026;51.002;13.668;2022-08-21T08:41:10;19.53;;;16.27;;
4023;SDS011;2026;51.002;13.668;2022-08-21T08:46:19;16.47;;;14.67;;
4023;SDS011;2026;51.002;13.668;2022-08-21T08:51:29;16.60;;;14.80;;
4023;SDS011;2026;51.002;13.668;2022-08-21T08:56:42;17.17;;;15.30;;
4023;SDS011;2026;51.002;13.668;2022-08-21T09:01:47;15.60;;;13.97;;
4023;SDS011;2026;51.002;13.668;2022-08-21T09:06:57;15.80;;;12.10;;
4023;SDS011;2026;51.002;13.668;2022-08-21T09:12:09;12.10;;;10.80;;
4023;SDS011;2026;51.002;13.668;2022-08-21T09:17:23;12.90;;;10.30;;
4023;SDS011;2026;51.002;13.668;2022-08-21T09:22:39;12.20;;;9.40;;
4023;SDS011;2026;51.002;13.668;2022-08-21T09:27:49;9.33;;;8.00;;
4023;SDS011;2026;51.002;13.668;2022-08-21T09:32:54;9.13;;;7.47;;
4023;SDS011;2026;51.002;13.668;2022-08-21T09:37:59;5.60;;;5.00;;
4023;SDS011;2026;51.002;13.668;2022-08-21T09:43:06;6.63;;;5.17;;
4023;SDS011;2026;51.002;13.668;2022-08-21T09:48:21;9.80;;;5.20;;
4023;SDS011;2026;51.002;13.668;2022-08-21T09:53:27;6.40;;;4.60;;
4023;SDS011;2026;51.002;13.668;2022-08-21T09:58:37;8.27;;;4.70;;
4023;SDS011;2026;51.002;13.668;2022-08-21T10:03:44;8.10;;;5.10;;
4023;SDS011;2026;51.002;13.668;2022-08-21T10:08:48;5.90;;;4.60;;
4023;SDS011;2026;51.002;13.668;2022-08-21T10:13:52;10.43;;;4.43;;
4023;SDS011;2026;51.002;13.668;2022-08-21T10:19:16;5.67;;;3.87;;
4023;SDS011;2026;51.002;13.668;2022-08-21T10:24:26;8.10;;;4.30;;
4023;SDS011;2026;51.002;13.668;2022-08-21T10:29:45;8.33;;;4.47;;
4023;SDS011;2026;51.002;13.668;2022-08-21T10:34:59;6.80;;;4.63;;
4023;SDS011;2026;51.002;13.668;2022-08-21T10:40:12;8.33;;;5.27;;
4023;SDS011;2026;51.002;13.668;2022-08-21T10:45:25;13.80;;;4.80;;
4023;SDS011;2026;51.002;13.668;2022-08-21T10:50:42;4.93;;;4.37;;
4023;SDS011;2026;51.002;13.668;2022-08-21T10:55:52;5.73;;;4.10;;
4023;SDS011;2026;51.002;13.668;2022-08-21T11:01:00;7.23;;;4.60;;
4023;SDS011;2026;51.002;13.668;2022-08-21T11:06:13;6.87;;;4.40;;
4023;SDS011;2026;51.002;13.668;2022-08-21T11:11:20;6.00;;;4.40;;
4023;SDS011;2026;51.002;13.668;2022-08-21T11:16:37;6.43;;;4.00;;
4023;SDS011;2026;51.002;13.668;2022-08-21T11:21:46;6.10;;;3.60;;
4023;SDS011;2026;51.002;13.668;2022-08-21T11:26:57;5.60;;;3.17;;
4023;SDS011;2026;51.002;13.668;2022-08-21T11:32:12;5.57;;;3.20;;
4023;SDS011;2026;51.002;13.668;2022-08-21T11:37:35;5.23;;;3.60;;
4023;SDS011;2026;51.002;13.668;2022-08-21T11:42:50;7.30;;;3.20;;
4023;SDS011;2026;51.002;13.668;2022-08-21T11:48:01;6.60;;;3.30;;
4023;SDS011;2026;51.002;13.668;2022-08-21T11:53:15;5.90;;;4.30;;
4023;SDS011;2026;51.002;13.668;2022-08-21T11:58:25;8.97;;;2.97;;
4023;SDS011;2026;51.002;13.668;2022-08-21T12:03:33;6.70;;;3.17;;
4023;SDS011;2026;51.002;13.668;2022-08-21T12:08:41;8.27;;;3.83;;
4023;SDS011;2026;51.002;13.668;2022-08-21T12:13:52;6.10;;;3.17;;
4023;SDS011;2026;51.002;13.668;2022-08-21T12:19:05;10.87;;;3.83;;
4023;SDS011;2026;51.002;13.668;2022-08-21T12:24:16;4.93;;;3.43;;
4023;SDS011;2026;51.002;13.668;2022-08-21T12:29:29;5.53;;;3.40;;
4023;SDS011;2026;51.002;13.668;2022-08-21T12:34:35;6.07;;;3.80;;
4023;SDS011;2026;51.002;13.668;2022-08-21T12:39:43;8.67;;;4.40;;
4023;SDS011;2026;51.002;13.668;2022-08-21T12:44:49;5.10;;;3.77;;
4023;SDS011;2026;51.002;13.668;2022-08-21T12:49:58;6.60;;;4.03;;
4023;SDS011;2026;51.002;13.668;2022-08-21T12:55:12;5.40;;;3.30;;
4023;SDS011;2026;51.002;13.668;2022-08-21T13:00:20;10.37;;;3.57;;
4023;SDS011;2026;51.002;13.668;2022-08-21T13:05:27;5.70;;;3.37;;
4023;SDS011;2026;51.002;13.668;2022-08-21T13:10:34;7.43;;;3.30;;
4023;SDS011;2026;51.002;13.668;2022-08-21T13:15:40;5.00;;;2.87;;
4023;SDS011;2026;51.002;13.668;2022-08-21T13:20:48;9.43;;;3.67;;
4023;SDS011;2026;51.002;13.668;2022-08-21T13:25:54;6.93;;;3.33;;
4023;SDS011;2026;51.002;13.668;2022-08-21T13:30:58;9.20;;;3.90;;
4023;SDS011;2026;51.002;13.668;2022-08-21T13:36:03;6.57;;;2.70;;
4023;SDS011;2026;51.002;13.668;2022-08-21T13:41:19;6.83;;;2.83;;
4023;SDS011;2026;51.002;13.668;2022-08-21T13:46:26;4.60;;;3.00;;
4023;SDS011;2026;51.002;13.668;2022-08-21T13:51:33;6.60;;;3.40;;
4023;SDS011;2026;51.002;13.668;2022-08-21T13:56:43;6.73;;;2.90;;
4023;SDS011;2026;51.002;13.668;2022-08-21T14:01:48;6.00;;;2.93;;
4023;SDS011;2026;51.002;13.668;2022-08-21T14:06:56;6.93;;;3.03;;
4023;SDS011;2026;51.002;13.668;2022-08-21T14:12:02;6.50;;;2.83;;
4023;SDS011;2026;51.002;13.668;2022-08-21T14:17:29;6.80;;;2.87;;
4023;SDS011;2026;51.002;13.668;2022-08-21T14:22:36;3.83;;;2.70;;
4023;SDS011;2026;51.002;13.668;2022-08-21T14:27:45;6.23;;;2.53;;
4023;SDS011;2026;51.002;13.668;2022-08-21T14:32:53;7.00;;;2.90;;
4023;SDS011;2026;51.002;13.668;2022-08-21T14:37:56;5.40;;;2.53;;
4023;SDS011;2026;51.002;13.668;2022-08-21T14:43:01;3.07;;;2.47;;
4023;SDS011;2026;51.002;13.668;2022-08-21T14:48:04;4.73;;;2.50;;
4023;SDS011;2026;51.002;13.668;2022-08-21T14:53:07;7.60;;;3.50;;
4023;SDS011;2026;51.002;13.668;2022-08-21T14:58:13;4.30;;;2.57;;
4023;SDS011;2026;51.002;13.668;2022-08-21T15:03:16;6.50;;;2.40;;
4023;SDS011;2026;51.002;13.668;2022-08-21T15:08:20;7.77;;;2.40;;
4023;SDS011;2026;51.002;13.668;2022-08-21T15:13:24;6.73;;;2.47;;
4023;SDS011;2026;51.002;13.668;2022-08-21T15:18:28;5.30;;;2.30;;
4023;SDS011;2026;51.002;13.668;2022-08-21T15:23:33;7.77;;;2.70;;
4023;SDS011;2026;51.002;13.668;2022-08-21T15:28:41;4.93;;;2.27;;
4023;SDS011;2026;51.002;13.668;2022-08-21T15:33:47;4.03;;;2.27;;
4023;SDS011;2026;51.002;13.668;2022-08-21T15:38:51;7.90;;;2.53;;
4023;SDS011;2026;51.002;13.668;2022-08-21T15:43:55;8.33;;;4.23;;
4023;SDS011;2026;51.002;13.668;2022-08-21T15:48:58;7.60;;;3.50;;
4023;SDS011;2026;51.002;13.668;2022-08-21T15:54:02;4.93;;;2.47;;
4023;SDS011;2026;51.002;13.668;2022-08-21T15:59:07;6.47;;;2.43;;
4023;SDS011;2026;51.002;13.668;2022-08-21T16:04:15;3.20;;;2.30;;
4023;SDS011;2026;51.002;13.668;2022-08-21T16:09:24;5.00;;;3.33;;
4023;SDS011;2026;51.002;13.668;2022-08-21T16:14:29;17.77;;;16.20;;
4023;SDS011;2026;51.002;13.668;2022-08-21T16:19:33;10.70;;;9.20;;
4023;SDS011;2026;51.002;13.668;2022-08-21T16:24:38;8.20;;;5.40;;
4023;SDS011;2026;51.002;13.668;2022-08-21T16:29:43;3.80;;;3.30;;
4023;SDS011;2026;51.002;13.668;2022-08-21T16:34:48;6.17;;;2.63;;
4023;SDS011;2026;51.002;13.668;2022-08-21T16:39:51;3.50;;;2.37;;
4023;SDS011;2026;51.002;13.668;2022-08-21T16:44:56;3.23;;;2.57;;
4023;SDS011;2026;51.002;13.668;2022-08-21T16:50:00;6.93;;;2.80;;
4023;SDS011;2026;51.002;13.668;2022-08-21T16:55:03;4.10;;;2.40;;
4023;SDS011;2026;51.002;13.668;2022-08-21T17:00:09;6.97;;;3.23;;
4023;SDS011;2026;51.002;13.668;2022-08-21T17:05:14;4.53;;;2.80;;
4023;SDS011;2026;51.002;13.668;2022-08-21T17:10:17;3.67;;;2.70;;
4023;SDS011;2026;51.002;13.668;2022-08-21T17:15:24;9.07;;;3.13;;
4023;SDS011;2026;51.002;13.668;2022-08-21T17:20:30;5.70;;;3.27;;
4023;SDS011;2026;51.002;13.668;2022-08-21T17:25:33;4.67;;;3.10;;
4023;SDS011;2026;51.002;13.668;2022-08-21T17:30:41;4.43;;;3.10;;
4023;SDS011;2026;51.002;13.668;2022-08-21T17:35:46;7.50;;;4.87;;
4023;SDS011;2026;51.002;13.668;2022-08-21T17:40:50;7.37;;;5.50;;
4023;SDS011;2026;51.002;13.668;2022-08-21T17:45:55;6.57;;;4.17;;
4023;SDS011;2026;51.002;13.668;2022-08-21T17:50:58;10.13;;;4.90;;
4023;SDS011;2026;51.002;13.668;2022-08-21T17:56:02;4.50;;;3.50;;
4023;SDS011;2026;51.002;13.668;2022-08-21T18:01:08;6.60;;;4.20;;
4023;SDS011;2026;51.002;13.668;2022-08-21T18:06:13;4.63;;;3.40;;
4023;SDS011;2026;51.002;13.668;2022-08-21T18:11:18;3.80;;;3.20;;
4023;SDS011;2026;51.002;13.668;2022-08-21T18:16:27;5.00;;;3.00;;
4023;SDS011;2026;51.002;13.668;2022-08-21T18:21:32;5.87;;;3.00;;
4023;SDS011;2026;51.002;13.668;2022-08-21T18:26:36;6.63;;;4.10;;
4023;SDS011;2026;51.002;13.668;2022-08-21T18:31:43;9.27;;;4.77;;
4023;SDS011;2026;51.002;13.668;2022-08-21T18:36:47;5.43;;;4.03;;
4023;SDS011;2026;51.002;13.668;2022-08-21T18:41:52;4.07;;;3.50;;
4023;SDS011;2026;51.002;13.668;2022-08-21T18:47:00;7.10;;;3.17;;
4023;SDS011;2026;51.002;13.668;2022-08-21T18:52:05;7.17;;;3.67;;
4023;SDS011;2026;51.002;13.668;2022-08-21T18:57:10;4.93;;;3.27;;
4023;SDS011;2026;51.002;13.668;2022-08-21T19:02:16;8.93;;;3.20;;
4023;SDS011;2026;51.002;13.668;2022-08-21T19:07:19;4.63;;;3.87;;
4023;SDS011;2026;51.002;13.668;2022-08-21T19:12:23;5.23;;;3.90;;
4023;SDS011;2026;51.002;13.668;2022-08-21T19:17:32;4.73;;;4.03;;
4023;SDS011;2026;51.002;13.668;2022-08-21T19:22:36;5.47;;;4.20;;
4023;SDS011;2026;51.002;13.668;2022-08-21T19:27:39;10.10;;;4.93;;
4023;SDS011;2026;51.002;13.668;2022-08-21T19:32:45;8.13;;;4.67;;
4023;SDS011;2026;51.002;13.668;2022-08-21T19:37:50;5.60;;;4.80;;
4023;SDS011;2026;51.002;13.668;2022-08-21T19:42:53;5.00;;;4.10;;
4023;SDS011;2026;51.002;13.668;2022-08-21T19:48:02;5.63;;;4.13;;
4023;SDS011;2026;51.002;13.668;2022-08-21T19:53:07;5.90;;;4.07;;
4023;SDS011;2026;51.002;13.668;2022-08-21T19:58:32;6.30;;;3.97;;
4023;SDS011;2026;51.002;13.668;2022-08-21T20:03:38;6.60;;;4.37;;
4023;SDS011;2026;51.002;13.668;2022-08-21T20:08:43;5.80;;;4.00;;
4023;SDS011;2026;51.002;13.668;2022-08-21T20:13:48;6.77;;;3.80;;
4023;SDS011;2026;51.002;13.668;2022-08-21T20:18:54;8.13;;;4.80;;
4023;SDS011;2026;51.002;13.668;2022-08-21T20:23:57;8.93;;;4.30;;
4023;SDS011;2026;51.002;13.668;2022-08-21T20:29:01;4.87;;;4.00;;
4023;SDS011;2026;51.002;13.668;2022-08-21T20:34:08;5.23;;;4.40;;
4023;SDS011;2026;51.002;13.668;2022-08-21T20:39:16;5.00;;;4.23;;
4023;SDS011;2026;51.002;13.668;2022-08-21T20:44:24;5.80;;;4.40;;
4023;SDS011;2026;51.002;13.668;2022-08-21T20:49:32;10.63;;;5.13;;
4023;SDS011;2026;51.002;13.668;2022-08-21T20:54:40;6.40;;;4.80;;
4023;SDS011;2026;51.002;13.668;2022-08-21T20:59:51;6.63;;;4.50;;
4023;SDS011;2026;51.002;13.668;2022-08-21T21:05:01;7.10;;;4.57;;
4023;SDS011;2026;51.002;13.668;2022-08-21T21:10:09;6.03;;;4.93;;
4023;SDS011;2026;51.002;13.668;2022-08-21T21:15:20;6.57;;;5.17;;
4023;SDS011;2026;51.002;13.668;2022-08-21T21:20:32;6.27;;;4.30;;
4023;SDS011;2026;51.002;13.668;2022-08-21T21:25:38;6.70;;;4.63;;
4023;SDS011;2026;51.002;13.668;2022-08-21T21:30:54;4.50;;;4.10;;
4023;SDS011;2026;51.002;13.668;2022-08-21T21:36:02;5.50;;;4.40;;
4023;SDS011;2026;51.002;13.668;2022-08-21T21:41:15;5.50;;;4.60;;
4023;SDS011;2026;51.002;13.668;2022-08-21T21:46:30;5.40;;;4.90;;
4023;SDS011;2026;51.002;13.668;2022-08-21T21:51:50;9.90;;;4.67;;
4023;SDS011;2026;51.002;13.668;2022-08-21T21:57:02;8.80;;;4.70;;
4023;SDS011;2026;51.002;13.668;2022-08-21T22:02:15;4.80;;;4.23;;
4023;SDS011;2026;51.002;13.668;2022-08-21T22:07:32;6.47;;;4.77;;
4023;SDS011;2026;51.002;13.668;2022-08-21T22:12:43;7.40;;;5.10;;
4023;SDS011;2026;51.002;13.668;2022-08-21T22:17:55;7.43;;;4.27;;
4023;SDS011;2026;51.002;13.668;2022-08-21T22:23:13;7.00;;;5.23;;
4023;SDS011;2026;51.002;13.668;2022-08-21T22:28:20;7.40;;;5.27;;
4023;SDS011;2026;51.002;13.668;2022-08-21T22:33:33;9.37;;;5.70;;
4023;SDS011;2026;51.002;13.668;2022-08-21T22:38:38;8.27;;;4.53;;
4023;SDS011;2026;51.002;13.668;2022-08-21T22:43:49;6.00;;;4.90;;
4023;SDS011;2026;51.002;13.668;2022-08-21T22:48:59;5.70;;;5.20;;
4023;SDS011;2026;51.002;13.668;2022-08-21T22:54:09;4.90;;;4.50;;
4023;SDS011;2026;51.002;13.668;2022-08-21T22:59:24;6.63;;;5.10;;
4023;SDS011;2026;51.002;13.668;2022-08-21T23:04:29;7.20;;;5.10;;
4023;SDS011;2026;51.002;13.668;2022-08-21T23:09:37;11.50;;;5.50;;
4023;SDS011;2026;51.002;13.668;2022-08-21T23:14:47;6.00;;;5.00;;
4023;SDS011;2026;51.002;13.668;2022-08-21T23:20:16;9.20;;;5.07;;
4023;SDS011;2026;51.002;13.668;2022-08-21T23:25:41;6.83;;;5.50;;
4023;SDS011;2026;51.002;13.668;2022-08-21T23:31:02;8.10;;;5.60;;
4023;SDS011;2026;51.002;13.668;2022-08-21T23:36:25;8.13;;;5.90;;
4023;SDS011;2026;51.002;13.668;2022-08-21T23:42:05;6.70;;;5.13;;
4023;SDS011;2026;51.002;13.668;2022-08-21T23:47:22;6.10;;;4.57;;
4023;SDS011;2026;51.002;13.668;2022-08-21T23:52:43;5.73;;;5.23;;
4023;SDS011;2026;51.002;13.668;2022-08-21T23:58:00;4.90;;;4.40;;
